createdAt,value
2023-05-09T00:00:14.919Z,8
2023-05-09T00:01:21.838Z,7
2023-05-09T00:02:28.806Z,7
2023-05-09T00:03:35.694Z,8
2023-05-09T00:04:42.552Z,8
2023-05-09T00:05:49.648Z,8
2023-05-09T00:06:56.476Z,8
2023-05-09T00:08:03.400Z,8
2023-05-09T00:09:10.287Z,7
2023-05-09T00:10:17.176Z,8
2023-05-09T00:11:24.342Z,8
2023-05-09T00:12:31.090Z,8
2023-05-09T00:13:37.961Z,7
2023-05-09T00:14:44.788Z,8
2023-05-09T00:15:51.699Z,8
2023-05-09T00:16:58.627Z,8
2023-05-09T00:18:05.450Z,8
2023-05-09T00:19:12.328Z,9
2023-05-09T00:20:19.200Z,8
2023-05-09T00:21:26.057Z,8
2023-05-09T00:22:32.945Z,8
2023-05-09T00:23:39.846Z,8
2023-05-09T00:24:46.693Z,8
2023-05-09T00:25:53.591Z,7
2023-05-09T00:27:00.682Z,8
2023-05-09T00:28:07.449Z,8
2023-05-09T00:29:14.281Z,8
2023-05-09T00:30:21.137Z,8
2023-05-09T00:31:28.078Z,8
2023-05-09T00:32:35.037Z,8
2023-05-09T00:33:41.860Z,8
2023-05-09T00:34:48.687Z,7
2023-05-09T00:35:55.576Z,8
2023-05-09T00:37:02.575Z,8
2023-05-09T00:38:09.499Z,8
2023-05-09T00:39:16.329Z,8
2023-05-09T00:40:23.168Z,8
2023-05-09T00:41:30.054Z,8
2023-05-09T00:42:37.097Z,8
2023-05-09T00:43:43.802Z,8
2023-05-09T00:44:50.756Z,9
2023-05-09T00:45:57.649Z,9
2023-05-09T00:47:04.522Z,8
2023-05-09T00:48:11.633Z,8
2023-05-09T00:49:18.456Z,9
2023-05-09T00:50:25.367Z,7
2023-05-09T00:51:32.249Z,8
2023-05-09T00:52:39.081Z,8
2023-05-09T00:53:46.040Z,9
2023-05-09T00:54:53.142Z,8
2023-05-09T00:56:00.000Z,8
2023-05-09T00:57:07.091Z,9
2023-05-09T00:58:14.996Z,8
2023-05-09T00:59:21.814Z,8
2023-05-09T01:00:28.816Z,8
2023-05-09T01:01:35.689Z,8
2023-05-09T01:02:42.637Z,8
2023-05-09T01:03:49.489Z,8
2023-05-09T01:04:56.437Z,8
2023-05-09T01:06:03.435Z,8
2023-05-09T01:07:20.660Z,9
2023-05-09T01:08:37.910Z,8
2023-05-09T01:09:49.980Z,8
2023-05-09T01:10:59.980Z,8
2023-05-09T01:12:06.833Z,8
2023-05-09T01:13:17.915Z,7
2023-05-09T01:14:27.516Z,8
2023-05-09T01:15:44.809Z,7
2023-05-09T01:16:56.839Z,8
2023-05-09T01:18:08.983Z,8
2023-05-09T01:19:18.825Z,8
2023-05-09T01:20:31.152Z,7
2023-05-09T01:21:43.227Z,7
2023-05-09T01:22:50.139Z,7
2023-05-09T01:24:07.358Z,8
2023-05-09T01:25:24.803Z,7
2023-05-09T01:26:39.461Z,8
2023-05-09T01:27:56.747Z,8
2023-05-09T01:29:14.124Z,8
2023-05-09T01:30:23.650Z,7
2023-05-09T01:31:30.563Z,8
2023-05-09T01:32:37.498Z,7
2023-05-09T01:33:44.486Z,8
2023-05-09T01:34:51.344Z,7
2023-05-09T01:35:58.209Z,8
2023-05-09T01:37:05.079Z,7
2023-05-09T01:38:12.018Z,7
2023-05-09T01:39:18.956Z,8
2023-05-09T01:40:25.833Z,8
2023-05-09T01:41:32.666Z,8
2023-05-09T01:42:39.606Z,7
2023-05-09T01:43:46.454Z,7
2023-05-09T01:44:53.537Z,7
2023-05-09T01:46:00.243Z,8
2023-05-09T01:47:07.094Z,8
2023-05-09T01:48:13.944Z,8
2023-05-09T01:49:20.958Z,7
2023-05-09T01:50:27.843Z,7
2023-05-09T01:51:34.731Z,8
2023-05-09T01:52:41.582Z,8
2023-05-09T01:53:48.451Z,8
2023-05-09T01:54:55.564Z,8
2023-05-09T01:56:02.469Z,8
2023-05-09T01:57:09.453Z,8
2023-05-09T01:58:16.275Z,8
2023-05-09T01:59:23.189Z,8
2023-05-09T02:00:30.175Z,7
2023-05-09T02:01:36.881Z,8
2023-05-09T02:02:43.790Z,7
2023-05-09T02:03:50.611Z,8
2023-05-09T02:04:57.466Z,8
2023-05-09T02:06:04.359Z,7
2023-05-09T02:07:11.292Z,8
2023-05-09T02:08:18.106Z,8
2023-05-09T02:09:24.913Z,8
2023-05-09T02:10:31.829Z,8
2023-05-09T02:11:38.861Z,8
2023-05-09T02:12:45.760Z,8
2023-05-09T02:13:52.604Z,8
2023-05-09T02:14:59.504Z,8
2023-05-09T02:16:06.812Z,8
2023-05-09T02:17:13.569Z,8
2023-05-09T02:18:20.403Z,9
2023-05-09T02:19:27.238Z,8
2023-05-09T02:20:34.177Z,9
2023-05-09T02:21:41.174Z,8
2023-05-09T02:22:48.039Z,9
2023-05-09T02:23:55.060Z,8
2023-05-09T02:25:01.978Z,8
2023-05-09T02:26:09.117Z,8
2023-05-09T02:27:16.099Z,8
2023-05-09T02:28:22.945Z,8
2023-05-09T02:29:29.802Z,8
2023-05-09T02:30:39.677Z,8
2023-05-09T02:31:46.772Z,7
2023-05-09T02:32:53.685Z,7
2023-05-09T02:34:00.728Z,7
2023-05-09T02:35:07.657Z,8
2023-05-09T02:36:14.516Z,8
2023-05-09T02:37:21.423Z,8
2023-05-09T02:38:28.304Z,8
2023-05-09T02:39:35.653Z,8
2023-05-09T02:40:42.540Z,8
2023-05-09T02:41:49.445Z,8
2023-05-09T02:42:56.343Z,8
2023-05-09T02:44:03.242Z,8
2023-05-09T02:45:10.142Z,7
2023-05-09T02:46:17.575Z,8
2023-05-09T02:47:24.594Z,7
2023-05-09T02:48:31.304Z,8
2023-05-09T02:49:38.216Z,8
2023-05-09T02:50:45.137Z,8
2023-05-09T02:51:52.042Z,7
2023-05-09T02:52:58.869Z,7
2023-05-09T02:54:05.735Z,8
2023-05-09T02:55:12.793Z,8
2023-05-09T02:56:19.486Z,7
2023-05-09T02:57:26.425Z,8
2023-05-09T02:58:33.292Z,7
2023-05-09T02:59:40.145Z,8
2023-05-09T03:00:47.049Z,8
2023-05-09T03:01:54.080Z,8
2023-05-09T03:03:01.136Z,8
2023-05-09T03:04:07.724Z,8
2023-05-09T03:05:14.702Z,8
2023-05-09T03:06:21.519Z,8
2023-05-09T03:07:28.386Z,8
2023-05-09T03:08:35.216Z,8
2023-05-09T03:09:42.115Z,8
2023-05-09T03:10:49.044Z,8
2023-05-09T03:11:56.055Z,8
2023-05-09T03:13:02.957Z,9
2023-05-09T03:14:09.867Z,8
2023-05-09T03:15:16.848Z,8
2023-05-09T03:16:23.831Z,8
2023-05-09T03:17:30.615Z,8
2023-05-09T03:18:37.614Z,8
2023-05-09T03:19:44.390Z,8
2023-05-09T03:20:51.284Z,8
2023-05-09T03:21:58.320Z,8
2023-05-09T03:23:05.153Z,8
2023-05-09T03:24:12.013Z,8
2023-05-09T03:25:18.901Z,8
2023-05-09T03:26:25.805Z,8
2023-05-09T03:27:32.821Z,9
2023-05-09T03:28:39.778Z,9
2023-05-09T03:29:46.657Z,8
2023-05-09T03:30:53.603Z,8
2023-05-09T03:32:01.345Z,9
2023-05-09T03:33:08.843Z,9
2023-05-09T03:34:15.879Z,8
2023-05-09T03:35:22.646Z,8
2023-05-09T03:36:29.514Z,8
2023-05-09T03:37:36.431Z,8
2023-05-09T03:38:43.378Z,8
2023-05-09T03:39:50.263Z,8
2023-05-09T03:40:57.170Z,9
2023-05-09T03:42:04.108Z,9
2023-05-09T03:43:11.123Z,8
2023-05-09T03:44:18.186Z,8
2023-05-09T03:45:25.239Z,8
2023-05-09T03:46:32.129Z,8
2023-05-09T03:47:39.129Z,8
2023-05-09T03:48:46.006Z,8
2023-05-09T03:49:53.111Z,8
2023-05-09T03:50:59.834Z,8
2023-05-09T03:52:06.775Z,9
2023-05-09T03:53:13.618Z,8
2023-05-09T03:54:20.494Z,8
2023-05-09T03:55:28.303Z,9
2023-05-09T03:56:35.248Z,8
2023-05-09T03:57:42.076Z,9
2023-05-09T03:58:48.976Z,9
2023-05-09T03:59:55.827Z,8
2023-05-09T04:01:02.770Z,8
2023-05-09T04:02:09.726Z,8
2023-05-09T04:03:16.628Z,8
2023-05-09T04:04:23.427Z,8
2023-05-09T04:05:30.441Z,8
2023-05-09T04:06:37.379Z,8
2023-05-09T04:07:44.268Z,8
2023-05-09T04:08:51.222Z,8
2023-05-09T04:09:58.031Z,8
2023-05-09T04:11:04.981Z,8
2023-05-09T04:12:12.020Z,8
2023-05-09T04:13:18.946Z,8
2023-05-09T04:14:25.828Z,7
2023-05-09T04:15:32.826Z,8
2023-05-09T04:16:39.913Z,7
2023-05-09T04:17:46.852Z,8
2023-05-09T04:18:53.726Z,8
2023-05-09T04:20:00.550Z,8
2023-05-09T04:21:07.799Z,8
2023-05-09T04:22:14.570Z,7
2023-05-09T04:23:21.572Z,8
2023-05-09T04:24:28.397Z,7
2023-05-09T04:25:35.256Z,7
2023-05-09T04:26:42.159Z,7
2023-05-09T04:27:49.044Z,8
2023-05-09T04:28:55.926Z,7
2023-05-09T04:30:02.789Z,8
2023-05-09T04:31:10.106Z,7
2023-05-09T04:32:16.827Z,7
2023-05-09T04:33:23.809Z,7
2023-05-09T04:34:30.763Z,7
2023-05-09T04:35:37.686Z,7
2023-05-09T04:36:44.685Z,7
2023-05-09T04:37:51.458Z,7
2023-05-09T04:38:58.448Z,7
2023-05-09T04:40:05.356Z,7
2023-05-09T04:41:12.565Z,7
2023-05-09T04:42:19.471Z,8
2023-05-09T04:43:29.776Z,7
2023-05-09T04:44:37.641Z,8
2023-05-09T04:45:44.609Z,7
2023-05-09T04:46:51.479Z,8
2023-05-09T04:47:58.331Z,8
2023-05-09T04:49:05.094Z,8
2023-05-09T04:50:12.004Z,8
2023-05-09T04:51:18.967Z,8
2023-05-09T04:52:26.040Z,8
2023-05-09T04:53:32.833Z,8
2023-05-09T04:54:39.727Z,8
2023-05-09T04:55:46.639Z,8
2023-05-09T04:56:56.147Z,8
2023-05-09T04:58:00.522Z,7
2023-05-09T04:59:07.389Z,8
2023-05-09T05:00:14.292Z,8
2023-05-09T05:01:21.398Z,7
2023-05-09T05:02:28.453Z,7
2023-05-09T05:03:35.308Z,7
2023-05-09T05:04:42.172Z,7
2023-05-09T05:05:49.078Z,8
2023-05-09T05:06:55.942Z,8
2023-05-09T05:08:03.129Z,7
2023-05-09T05:09:09.866Z,7
2023-05-09T05:10:16.797Z,8
2023-05-09T05:11:23.666Z,7
2023-05-09T05:12:30.565Z,7
2023-05-09T05:13:37.398Z,7
2023-05-09T05:14:44.316Z,8
2023-05-09T05:15:51.232Z,7
2023-05-09T05:16:58.065Z,8
2023-05-09T05:18:04.948Z,7
2023-05-09T05:19:11.762Z,7
2023-05-09T05:20:18.605Z,7
2023-05-09T05:21:25.421Z,8
2023-05-09T05:22:32.880Z,7
2023-05-09T05:23:39.536Z,7
2023-05-09T05:24:46.250Z,7
2023-05-09T05:25:53.105Z,7
2023-05-09T05:27:00.014Z,7
2023-05-09T05:28:07.183Z,6
2023-05-09T05:29:14.082Z,7
2023-05-09T05:30:21.072Z,7
2023-05-09T05:31:27.960Z,7
2023-05-09T05:32:34.848Z,7
2023-05-09T05:33:41.879Z,8
2023-05-09T05:34:48.721Z,8
2023-05-09T05:35:55.592Z,6
2023-05-09T05:37:02.415Z,7
2023-05-09T05:38:09.403Z,7
2023-05-09T05:39:16.463Z,7
2023-05-09T05:40:23.239Z,7
2023-05-09T05:41:30.151Z,7
2023-05-09T05:42:37.011Z,8
2023-05-09T05:43:47.542Z,7
2023-05-09T05:44:54.647Z,7
2023-05-09T05:46:01.597Z,7
2023-05-09T05:47:08.503Z,6
2023-05-09T05:48:15.381Z,7
2023-05-09T05:49:22.412Z,6
2023-05-09T05:50:29.432Z,7
2023-05-09T05:51:36.338Z,7
2023-05-09T05:52:43.216Z,6
2023-05-09T05:53:50.112Z,6
2023-05-09T05:54:57.094Z,5
2023-05-09T05:56:03.902Z,6
2023-05-09T05:57:10.908Z,5
2023-05-09T05:58:17.742Z,6
2023-05-09T05:59:24.652Z,6
2023-05-09T06:00:31.624Z,6
2023-05-09T06:01:38.617Z,6
2023-05-09T06:02:45.570Z,6
2023-05-09T06:03:52.335Z,5
2023-05-09T06:04:59.188Z,5
2023-05-09T06:06:06.113Z,5
2023-05-09T06:07:12.965Z,6
2023-05-09T06:08:19.807Z,6
2023-05-09T06:09:26.920Z,6
2023-05-09T06:10:34.338Z,6
2023-05-09T06:11:41.276Z,6
2023-05-09T06:12:48.604Z,5
2023-05-09T06:13:55.467Z,5
2023-05-09T06:15:02.366Z,6
2023-05-09T06:17:16.691Z,6
2023-05-09T06:18:24.079Z,6
2023-05-09T06:19:30.981Z,6
2023-05-09T06:20:37.810Z,6
2023-05-09T06:21:44.807Z,7
2023-05-09T06:22:51.821Z,6
2023-05-09T06:24:08.264Z,6
2023-05-09T06:25:06.946Z,7
2023-05-09T06:26:12.544Z,7
2023-05-09T06:27:19.625Z,6
2023-05-09T06:28:26.935Z,7
2023-05-09T06:29:33.826Z,7
2023-05-09T06:30:40.773Z,7
2023-05-09T06:31:47.713Z,7
2023-05-09T06:32:54.685Z,7
2023-05-09T06:34:01.564Z,7
2023-05-09T06:35:08.544Z,6
2023-05-09T06:36:15.444Z,6
2023-05-09T06:37:22.326Z,6
2023-05-09T06:38:29.217Z,6
2023-05-09T06:39:36.220Z,6
2023-05-09T06:40:43.084Z,6
2023-05-09T06:41:50.181Z,6
2023-05-09T06:42:56.866Z,6
2023-05-09T06:44:03.736Z,6
2023-05-09T06:45:10.833Z,6
2023-05-09T06:46:17.772Z,6
2023-05-09T06:47:24.657Z,6
2023-05-09T06:48:31.536Z,6
2023-05-09T06:49:38.412Z,7
2023-05-09T06:50:45.273Z,6
2023-05-09T06:51:52.157Z,7
2023-05-09T06:52:59.055Z,6
2023-05-09T06:54:05.971Z,6
2023-05-09T06:55:13.005Z,6
2023-05-09T06:56:20.163Z,6
2023-05-09T06:57:26.856Z,6
2023-05-09T06:58:33.578Z,6
2023-05-09T06:59:40.434Z,6
2023-05-09T07:00:47.392Z,5
2023-05-09T07:01:54.301Z,5
2023-05-09T07:03:01.199Z,5
2023-05-09T07:04:08.053Z,6
2023-05-09T07:05:15.193Z,5
2023-05-09T07:06:21.815Z,5
2023-05-09T07:07:28.855Z,5
2023-05-09T07:08:35.752Z,5
2023-05-09T07:09:42.646Z,5
2023-05-09T07:10:49.561Z,5
2023-05-09T07:11:56.609Z,4
2023-05-09T07:13:03.744Z,5
2023-05-09T07:14:10.541Z,5
2023-05-09T07:15:25.832Z,5
2023-05-09T07:16:24.321Z,4
2023-05-09T07:17:31.502Z,5
2023-05-09T07:18:38.378Z,4
2023-05-09T07:19:45.488Z,4
2023-05-09T07:20:52.355Z,4
2023-05-09T07:21:59.182Z,4
2023-05-09T07:23:06.285Z,4
2023-05-09T07:24:13.061Z,4
2023-05-09T07:25:19.925Z,4
2023-05-09T07:26:26.775Z,4
2023-05-09T07:27:33.665Z,4
2023-05-09T07:28:40.777Z,3
2023-05-09T07:29:47.640Z,3
2023-05-09T07:30:54.518Z,4
2023-05-09T07:32:01.503Z,3
2023-05-09T07:33:08.498Z,4
2023-05-09T07:34:15.543Z,4
2023-05-09T07:35:22.416Z,4
2023-05-09T07:36:29.404Z,4
2023-05-09T07:37:36.286Z,4
2023-05-09T07:38:43.125Z,4
2023-05-09T07:39:50.165Z,4
2023-05-09T07:40:57.025Z,4
2023-05-09T07:42:04.059Z,4
2023-05-09T07:43:10.967Z,3
2023-05-09T07:44:18.026Z,4
2023-05-09T07:45:24.916Z,4
2023-05-09T07:46:31.865Z,4
2023-05-09T07:47:38.925Z,4
2023-05-09T07:48:45.769Z,4
2023-05-09T07:49:52.642Z,4
2023-05-09T07:50:59.646Z,4
2023-05-09T07:52:06.572Z,4
2023-05-09T07:53:13.466Z,4
2023-05-09T07:54:20.327Z,4
2023-05-09T07:55:27.310Z,4
2023-05-09T07:56:34.434Z,4
2023-05-09T07:57:41.328Z,4
2023-05-09T07:58:48.173Z,3
2023-05-09T07:59:55.156Z,4
2023-05-09T08:01:01.963Z,3
2023-05-09T08:02:08.866Z,4
2023-05-09T08:03:15.986Z,4
2023-05-09T08:04:22.666Z,4
2023-05-09T08:05:29.534Z,4
2023-05-09T08:06:36.589Z,4
2023-05-09T08:07:43.472Z,4
2023-05-09T08:08:50.323Z,4
2023-05-09T08:09:57.127Z,5
2023-05-09T08:11:04.039Z,4
2023-05-09T08:12:10.969Z,4
2023-05-09T08:13:17.921Z,4
2023-05-09T08:14:24.717Z,5
2023-05-09T08:15:31.710Z,4
2023-05-09T08:16:38.606Z,4
2023-05-09T08:17:45.572Z,4
2023-05-09T08:18:52.376Z,4
2023-05-09T08:19:59.254Z,5
2023-05-09T08:21:06.206Z,4
2023-05-09T08:22:13.075Z,4
2023-05-09T08:23:19.924Z,4
2023-05-09T08:24:27.027Z,4
2023-05-09T08:25:33.952Z,5
2023-05-09T08:26:40.814Z,5
2023-05-09T08:27:47.689Z,4
2023-05-09T08:28:54.620Z,5
2023-05-09T08:30:01.663Z,5
2023-05-09T08:31:08.946Z,4
2023-05-09T08:32:15.628Z,4
2023-05-09T08:33:22.537Z,4
2023-05-09T08:34:29.557Z,4
2023-05-09T08:35:39.113Z,4
2023-05-09T08:36:45.992Z,5
2023-05-09T08:37:52.917Z,5
2023-05-09T08:38:59.772Z,5
2023-05-09T08:40:06.649Z,4
2023-05-09T08:41:13.714Z,4
2023-05-09T08:42:20.558Z,4
2023-05-09T08:43:27.503Z,4
2023-05-09T08:44:34.381Z,4
2023-05-09T08:45:41.374Z,4
2023-05-09T08:46:54.346Z,5
2023-05-09T08:48:03.654Z,5
2023-05-09T08:49:10.553Z,4
2023-05-09T08:50:17.695Z,4
2023-05-09T08:51:24.272Z,5
2023-05-09T08:52:31.211Z,4
2023-05-09T08:53:37.998Z,4
2023-05-09T08:54:44.910Z,4
2023-05-09T08:55:51.749Z,5
2023-05-09T08:56:58.649Z,5
2023-05-09T08:58:05.577Z,5
2023-05-09T08:59:12.373Z,5
2023-05-09T09:00:20.701Z,4
2023-05-09T09:01:26.545Z,4
2023-05-09T09:02:33.553Z,5
2023-05-09T09:03:40.254Z,5
2023-05-09T09:04:47.149Z,4
2023-05-09T09:05:54.147Z,4
2023-05-09T09:07:00.982Z,4
2023-05-09T09:08:07.815Z,4
2023-05-09T09:09:14.705Z,4
2023-05-09T09:10:21.720Z,5
2023-05-09T09:11:30.054Z,5
2023-05-09T09:12:38.292Z,5
2023-05-09T09:13:45.136Z,5
2023-05-09T09:14:51.995Z,5
2023-05-09T09:15:58.871Z,5
2023-05-09T09:17:05.747Z,5
2023-05-09T09:18:12.760Z,5
2023-05-09T09:19:19.432Z,5
2023-05-09T09:20:26.265Z,6
2023-05-09T09:21:33.108Z,5
2023-05-09T09:22:40.040Z,5
2023-05-09T09:23:46.836Z,5
2023-05-09T09:24:53.615Z,5
2023-05-09T09:26:00.447Z,5
2023-05-09T09:27:07.318Z,4
2023-05-09T09:28:14.171Z,5
2023-05-09T09:29:21.015Z,5
2023-05-09T09:30:27.904Z,5
2023-05-09T09:31:34.807Z,5
2023-05-09T09:32:41.876Z,5
2023-05-09T09:33:48.905Z,5
2023-05-09T09:34:55.601Z,4
2023-05-09T09:36:07.660Z,5
2023-05-09T09:37:14.582Z,5
2023-05-09T09:38:24.279Z,4
2023-05-09T09:39:31.182Z,5
2023-05-09T09:40:38.121Z,4
2023-05-09T09:41:45.330Z,5
2023-05-09T09:42:52.139Z,5
2023-05-09T09:43:59.014Z,4
2023-05-09T09:45:13.598Z,4
2023-05-09T09:46:20.825Z,5
2023-05-09T09:47:27.610Z,5
2023-05-09T09:48:37.462Z,4
2023-05-09T09:49:45.946Z,5
2023-05-09T09:50:51.359Z,4
2023-05-09T09:51:58.422Z,4
2023-05-09T09:53:05.245Z,4
2023-05-09T09:54:12.159Z,4
2023-05-09T09:55:19.062Z,4
2023-05-09T09:56:26.008Z,4
2023-05-09T09:57:43.235Z,4
2023-05-09T09:58:50.089Z,4
2023-05-09T09:59:56.964Z,4
2023-05-09T10:01:04.005Z,4
2023-05-09T10:02:13.620Z,4
2023-05-09T10:03:20.541Z,3
2023-05-09T10:04:27.337Z,3
2023-05-09T10:05:34.292Z,3
2023-05-09T10:06:41.053Z,3
2023-05-09T10:07:58.216Z,4
2023-05-09T10:09:05.075Z,4
2023-05-09T10:10:12.015Z,4
2023-05-09T10:11:18.852Z,4
2023-05-09T10:12:25.674Z,4
2023-05-09T10:13:32.504Z,4
2023-05-09T10:14:39.454Z,4
2023-05-09T10:15:53.358Z,4
2023-05-09T10:16:53.294Z,4
2023-05-09T10:18:00.305Z,4
2023-05-09T10:19:07.152Z,4
2023-05-09T10:20:14.167Z,4
2023-05-09T10:21:21.031Z,4
2023-05-09T10:22:27.944Z,4
2023-05-09T10:23:34.763Z,4
2023-05-09T10:24:41.687Z,4
2023-05-09T10:25:51.399Z,3
2023-05-09T10:27:03.456Z,4
2023-05-09T10:28:10.331Z,3
2023-05-09T10:29:19.888Z,4
2023-05-09T10:30:26.841Z,4
2023-05-09T10:31:36.435Z,3
2023-05-09T10:32:43.281Z,4
2023-05-09T10:34:00.533Z,3
2023-05-09T10:35:07.377Z,4
2023-05-09T10:36:14.274Z,3
2023-05-09T10:37:21.389Z,3
2023-05-09T10:38:28.096Z,3
2023-05-09T10:39:34.940Z,4
2023-05-09T10:40:41.789Z,4
2023-05-09T10:41:48.628Z,3
2023-05-09T10:42:55.563Z,4
2023-05-09T10:44:02.359Z,4
2023-05-09T10:45:09.192Z,4
2023-05-09T10:46:16.092Z,3
2023-05-09T10:47:23.019Z,4
2023-05-09T10:48:29.914Z,3
2023-05-09T10:49:37.344Z,3
2023-05-09T10:50:43.723Z,3
2023-05-09T10:51:50.550Z,3
2023-05-09T10:52:57.683Z,3
2023-05-09T10:54:07.107Z,3
2023-05-09T10:55:16.907Z,3
2023-05-09T10:56:23.608Z,3
2023-05-09T10:57:33.086Z,3
2023-05-09T10:58:39.954Z,3
2023-05-09T10:59:46.841Z,3
2023-05-09T11:00:55.148Z,3
2023-05-09T11:02:00.628Z,3
2023-05-09T11:03:07.494Z,3
2023-05-09T11:04:14.292Z,3
2023-05-09T11:05:21.127Z,3
2023-05-09T11:06:28.005Z,3
2023-05-09T11:07:45.274Z,3
2023-05-09T11:08:52.217Z,3
2023-05-09T11:09:58.953Z,3
2023-05-09T11:11:11.067Z,3
2023-05-09T11:12:17.881Z,3
2023-05-09T11:13:25.081Z,3
2023-05-09T11:14:34.855Z,3
2023-05-09T11:15:44.463Z,3
2023-05-09T11:16:56.525Z,3
2023-05-09T11:18:03.492Z,3
2023-05-09T11:19:10.425Z,3
2023-05-09T11:20:17.254Z,3
2023-05-09T11:21:24.157Z,3
2023-05-09T11:22:31.195Z,3
2023-05-09T11:23:40.839Z,3
2023-05-09T11:24:47.821Z,3
2023-05-09T11:26:02.790Z,3
2023-05-09T11:27:09.753Z,3
2023-05-09T11:28:21.964Z,3
2023-05-09T11:29:28.823Z,2
2023-05-09T11:30:35.684Z,3
2023-05-09T11:31:42.648Z,3
2023-05-09T11:32:54.624Z,2
2023-05-09T11:34:01.551Z,2
2023-05-09T11:35:08.422Z,2
2023-05-09T11:36:17.883Z,2
2023-05-09T11:37:27.710Z,2
2023-05-09T11:38:34.575Z,3
2023-05-09T11:39:44.239Z,2
2023-05-09T11:41:01.665Z,2
2023-05-09T11:42:08.455Z,2
2023-05-09T11:43:15.247Z,2
2023-05-09T11:44:22.113Z,2
2023-05-09T11:45:29.007Z,2
2023-05-09T11:46:35.874Z,2
2023-05-09T11:47:42.707Z,2
2023-05-09T11:48:49.751Z,2
2023-05-09T11:49:56.624Z,2
2023-05-09T11:51:03.472Z,2
2023-05-09T11:52:10.290Z,2
2023-05-09T11:53:17.154Z,2
2023-05-09T11:54:24.134Z,2
2023-05-09T11:55:31.125Z,2
2023-05-09T11:56:38.034Z,2
2023-05-09T11:57:44.745Z,2
2023-05-09T11:58:51.532Z,2
2023-05-09T11:59:58.412Z,2
2023-05-09T12:01:05.331Z,2
2023-05-09T12:02:12.423Z,2
2023-05-09T12:03:19.364Z,2
2023-05-09T12:04:26.090Z,2
2023-05-09T12:05:35.876Z,2
2023-05-09T12:06:43.835Z,2
2023-05-09T12:07:49.660Z,2
2023-05-09T12:08:56.505Z,2
2023-05-09T12:10:03.404Z,2
2023-05-09T12:11:10.461Z,2
2023-05-09T12:12:17.446Z,2
2023-05-09T12:13:24.277Z,2
2023-05-09T12:14:31.046Z,2
2023-05-09T12:15:38.311Z,2
2023-05-09T12:16:44.805Z,2
2023-05-09T12:17:52.064Z,2
2023-05-09T12:19:06.337Z,2
2023-05-09T12:20:13.195Z,2
2023-05-09T12:21:20.121Z,2
2023-05-09T12:22:26.948Z,2
2023-05-09T12:23:33.978Z,2
2023-05-09T12:24:40.826Z,2
2023-05-09T12:25:47.775Z,2
2023-05-09T12:26:57.642Z,2
2023-05-09T12:28:04.621Z,2
2023-05-09T12:29:11.386Z,2
2023-05-09T12:30:18.254Z,2
2023-05-09T12:31:25.208Z,2
2023-05-09T12:32:32.196Z,2
2023-05-09T12:33:39.022Z,2
2023-05-09T12:34:45.900Z,2
2023-05-09T12:35:53.975Z,2
2023-05-09T12:37:07.580Z,2
2023-05-09T12:38:20.423Z,2
2023-05-09T12:39:27.264Z,2
2023-05-09T12:40:34.123Z,2
2023-05-09T12:41:50.073Z,2
2023-05-09T12:42:53.592Z,2
2023-05-09T12:44:00.545Z,2
2023-05-09T12:45:07.525Z,2
2023-05-09T12:46:14.429Z,2
2023-05-09T12:47:21.253Z,2
2023-05-09T12:48:30.938Z,2
2023-05-09T12:49:37.846Z,2
2023-05-09T12:50:44.758Z,2
2023-05-09T12:51:51.604Z,2
2023-05-09T12:53:03.030Z,2
2023-05-09T12:54:05.333Z,2
2023-05-09T12:55:12.546Z,2
2023-05-09T12:56:19.195Z,2
2023-05-09T12:57:31.349Z,2
2023-05-09T12:58:36.102Z,2
2023-05-09T12:59:43.043Z,2
2023-05-09T13:00:49.801Z,2
2023-05-09T13:01:56.726Z,2
2023-05-09T13:03:03.602Z,2
2023-05-09T13:04:11.243Z,2
2023-05-09T13:05:17.458Z,2
2023-05-09T13:06:24.085Z,2
2023-05-09T13:07:30.927Z,2
2023-05-09T13:08:42.955Z,2
2023-05-09T13:09:49.808Z,2
2023-05-09T13:11:04.394Z,2
2023-05-09T13:12:03.945Z,2
2023-05-09T13:13:10.833Z,2
2023-05-09T13:14:20.811Z,2
2023-05-09T13:15:27.759Z,2
2023-05-09T13:16:34.566Z,2
2023-05-09T13:17:41.440Z,2
2023-05-09T13:18:48.286Z,2
2023-05-09T13:19:55.090Z,2
2023-05-09T13:21:01.947Z,2
2023-05-09T13:22:10.419Z,2
2023-05-09T13:23:15.792Z,2
2023-05-09T13:24:22.683Z,2
2023-05-09T13:25:29.549Z,2
2023-05-09T13:26:36.413Z,2
2023-05-09T13:27:43.276Z,2
2023-05-09T13:28:50.166Z,2
2023-05-09T13:29:57.048Z,2
2023-05-09T13:31:04.159Z,2
2023-05-09T13:32:10.866Z,2
2023-05-09T13:34:24.603Z,2
2023-05-09T13:35:31.505Z,2
2023-05-09T13:36:38.329Z,2
2023-05-09T13:37:45.162Z,2
2023-05-09T13:38:51.957Z,2
2023-05-09T13:39:58.815Z,2
2023-05-09T13:41:05.667Z,2
2023-05-09T13:42:12.535Z,2
2023-05-09T13:43:19.423Z,2
2023-05-09T13:44:26.307Z,2
2023-05-09T13:45:33.299Z,2
2023-05-09T13:46:40.294Z,2
2023-05-09T13:47:47.027Z,2
2023-05-09T13:48:53.873Z,2
2023-05-09T13:50:00.889Z,2
2023-05-09T13:51:07.936Z,2
2023-05-09T13:52:14.763Z,2
2023-05-09T13:53:21.566Z,2
2023-05-09T13:54:28.398Z,2
2023-05-09T13:55:37.897Z,2
2023-05-09T13:56:44.985Z,2
2023-05-09T13:57:51.857Z,2
2023-05-09T13:58:58.742Z,2
2023-05-09T14:00:05.596Z,2
2023-05-09T14:01:12.994Z,2
2023-05-09T14:02:20.016Z,2
2023-05-09T14:03:26.747Z,2
2023-05-09T14:04:33.529Z,2
2023-05-09T14:05:40.400Z,2
2023-05-09T14:06:47.226Z,2
2023-05-09T14:07:54.057Z,2
2023-05-09T14:09:00.880Z,2
2023-05-09T14:10:11.702Z,2
2023-05-09T14:11:14.666Z,1
2023-05-09T14:12:21.569Z,2
2023-05-09T14:13:28.695Z,2
2023-05-09T14:14:35.452Z,2
2023-05-09T14:15:42.345Z,2
2023-05-09T14:16:49.182Z,2
2023-05-09T14:17:56.464Z,2
2023-05-09T14:19:03.155Z,2
2023-05-09T14:20:10.130Z,2
2023-05-09T14:21:16.868Z,2
2023-05-09T14:22:23.708Z,2
2023-05-09T14:23:30.654Z,2
2023-05-09T14:24:37.481Z,2
2023-05-09T14:25:44.309Z,2
2023-05-09T14:26:51.176Z,2
2023-05-09T14:27:58.122Z,2
2023-05-09T14:29:04.988Z,2
2023-05-09T14:30:11.867Z,2
2023-05-09T14:31:18.804Z,2
2023-05-09T14:32:25.608Z,2
2023-05-09T14:33:32.699Z,2
2023-05-09T14:34:39.453Z,2
2023-05-09T14:35:46.310Z,2
2023-05-09T14:36:53.157Z,2
2023-05-09T14:38:00.005Z,2
2023-05-09T14:39:06.836Z,2
2023-05-09T14:40:13.951Z,2
2023-05-09T14:41:21.517Z,2
2023-05-09T14:42:27.425Z,2
2023-05-09T14:43:34.264Z,2
2023-05-09T14:44:41.109Z,2
2023-05-09T14:45:48.070Z,2
2023-05-09T14:46:54.937Z,2
2023-05-09T14:48:01.838Z,2
2023-05-09T14:49:08.830Z,1
2023-05-09T14:50:15.953Z,2
2023-05-09T14:51:22.539Z,2
2023-05-09T14:52:29.449Z,1
2023-05-09T14:53:36.304Z,2
2023-05-09T14:54:43.221Z,1
2023-05-09T14:55:50.041Z,2
2023-05-09T14:56:56.903Z,2
2023-05-09T14:58:03.776Z,2
2023-05-09T14:59:10.607Z,1
2023-05-09T15:00:21.592Z,1
2023-05-09T15:01:24.493Z,2
2023-05-09T15:02:31.374Z,2
2023-05-09T15:03:38.196Z,1
2023-05-09T15:04:45.208Z,2
2023-05-09T15:05:51.967Z,1
2023-05-09T15:06:59.093Z,2
2023-05-09T15:08:05.782Z,1
2023-05-09T15:09:12.760Z,2
2023-05-09T15:10:19.593Z,1
2023-05-09T15:11:28.587Z,2
2023-05-09T15:12:33.314Z,1
2023-05-09T15:13:40.197Z,2
2023-05-09T15:14:47.087Z,1
2023-05-09T15:15:53.914Z,2
2023-05-09T15:17:00.859Z,2
2023-05-09T15:18:07.753Z,2
2023-05-09T15:19:14.778Z,2
2023-05-09T15:20:21.729Z,1
2023-05-09T15:21:28.539Z,1
2023-05-09T15:22:35.387Z,2
2023-05-09T15:23:42.263Z,2
2023-05-09T15:24:49.121Z,1
2023-05-09T15:25:56.124Z,1
2023-05-09T15:27:03.189Z,2
2023-05-09T15:28:10.097Z,1
2023-05-09T15:29:17.064Z,1
2023-05-09T15:30:23.945Z,1
2023-05-09T15:31:31.009Z,2
2023-05-09T15:32:37.855Z,2
2023-05-09T15:33:44.639Z,2
2023-05-09T15:34:51.727Z,2
2023-05-09T15:35:58.693Z,1
2023-05-09T15:37:05.449Z,2
2023-05-09T15:38:12.309Z,1
2023-05-09T15:39:19.209Z,1
2023-05-09T15:40:26.188Z,1
2023-05-09T15:41:33.048Z,1
2023-05-09T15:42:39.865Z,2
2023-05-09T15:43:46.733Z,2
2023-05-09T15:44:53.813Z,2
2023-05-09T15:46:00.696Z,2
2023-05-09T15:47:07.492Z,2
2023-05-09T15:48:14.348Z,2
2023-05-09T15:49:21.301Z,2
2023-05-09T15:50:28.255Z,2
2023-05-09T15:51:35.304Z,2
2023-05-09T15:52:41.949Z,2
2023-05-09T15:53:48.864Z,1
2023-05-09T15:54:55.753Z,1
2023-05-09T15:56:02.560Z,1
2023-05-09T15:57:09.606Z,1
2023-05-09T15:58:16.544Z,1
2023-05-09T15:59:23.378Z,1
2023-05-09T16:00:30.207Z,1
2023-05-09T16:01:37.126Z,1
2023-05-09T16:02:44.009Z,2
2023-05-09T16:03:50.843Z,2
2023-05-09T16:04:57.616Z,1
2023-05-09T16:06:04.454Z,2
2023-05-09T16:07:11.419Z,2
2023-05-09T16:08:18.208Z,2
2023-05-09T16:09:25.051Z,2
2023-05-09T16:10:31.936Z,1
2023-05-09T16:11:38.903Z,2
2023-05-09T16:12:45.786Z,1
2023-05-09T16:13:52.622Z,1
2023-05-09T16:14:59.435Z,2
2023-05-09T16:16:06.571Z,2
2023-05-09T16:17:13.383Z,2
2023-05-09T16:18:20.239Z,2
2023-05-09T16:19:27.086Z,2
2023-05-09T16:20:33.912Z,2
2023-05-09T16:21:40.894Z,1
2023-05-09T16:22:50.718Z,1
2023-05-09T16:23:57.449Z,2
2023-05-09T16:25:04.304Z,2
2023-05-09T16:26:11.216Z,2
2023-05-09T16:27:18.187Z,2
2023-05-09T16:28:25.171Z,2
2023-05-09T16:29:32.047Z,2
2023-05-09T16:30:38.928Z,1
2023-05-09T16:31:45.818Z,2
2023-05-09T16:32:52.833Z,2
2023-05-09T16:33:59.786Z,1
2023-05-09T16:35:06.704Z,2
2023-05-09T16:36:13.539Z,1
2023-05-09T16:37:20.416Z,1